Time;durP1;ratioP1;P1;durP2;ratioP2;P2;SDS_P1;SDS_P2;PMS_P1;PMS_P2;Temp;Humidity;BMP_temperature;BMP_pressure;BME280_temperature;BME280_humidity;BME280_pressure;Samples;Min_cycle;Max_cycle;Signal;HPM_P1;HPM_P2
2023/01/01 00:02:23;;;;;;;;;;;12.50;99.90;;;;;;5083116;28;19995;-69
2023/01/01 00:04:50;;;;;;;;;;;12.40;99.90;;;;;;5083861;28;19995;-69
2023/01/01 00:07:16;;;;;;;;;;;12.40;99.90;;;;;;5083839;28;19952;-72
2023/01/01 00:12:29;;;;;;;;;;;12.40;99.90;;;;;;5083949;28;19927;-69
2023/01/01 00:14:56;;;;;;;;;;;12.50;99.90;;;;;;5084044;28;19928;-70
2023/01/01 00:17:22;;;;;;;;;;;12.40;99.90;;;;;;5083380;28;20375;-70
2023/01/01 00:19:49;;;;;;;;;;;12.40;99.90;;;;;;5075521;28;19959;-70
2023/01/01 00:22:16;;;;;;;;;;;12.40;99.90;;;;;;5063624;28;19928;-70
2023/01/01 00:24:42;;;;;;;;;;;12.50;99.90;;;;;;5063456;28;20213;-70
2023/01/01 00:27:10;;;;;;;;;;;12.40;99.90;;;;;;5063569;28;19988;-70
2023/01/01 00:29:37;;;;;;;;;;;12.40;99.90;;;;;;5062975;28;19921;-70
2023/01/01 00:32:04;;;;;;;;;;;12.40;99.90;;;;;;5062927;28;19927;-69
2023/01/01 00:34:30;;;;;;;;;;;12.40;99.90;;;;;;5063882;28;20003;-70
2023/01/01 00:36:57;;;;;;;;;;;12.40;99.90;;;;;;5063478;28;19952;-70
2023/01/01 00:39:23;;;;;;;;;;;12.40;99.90;;;;;;5065506;28;19995;-70
2023/01/01 00:41:50;;;;;;;;;;;12.30;99.90;;;;;;5083745;28;19987;-69
2023/01/01 00:44:18;;;;;;;;;;;12.30;99.90;;;;;;5083687;28;19955;-70
2023/01/01 00:46:45;;;;;;;;;;;12.30;99.90;;;;;;5083016;28;19992;-70
2023/01/01 00:49:11;;;;;;;;;;;12.30;99.90;;;;;;5083618;28;19995;-70
2023/01/01 00:51:38;;;;;;;;;;;12.20;99.90;;;;;;5083589;28;20145;-70
2023/01/01 00:54:05;;;;;;;;;;;12.20;99.90;;;;;;5083177;28;19987;-70
2023/01/01 00:56:32;;;;;;;;;;;12.10;99.90;;;;;;5083107;28;20208;-70
2023/01/01 00:58:58;;;;;;;;;;;12.10;99.90;;;;;;5083452;28;19921;-70
2023/01/01 01:01:26;;;;;;;;;;;12.10;99.90;;;;;;5083572;28;20003;-70
2023/01/01 01:03:53;;;;;;;;;;;12.00;99.90;;;;;;5082791;28;20111;-70
2023/01/01 01:06:20;;;;;;;;;;;11.90;99.90;;;;;;5083419;28;19951;-70
2023/01/01 01:08:47;;;;;;;;;;;11.90;99.90;;;;;;5083082;28;19921;-70
2023/01/01 01:11:15;;;;;;;;;;;11.80;99.90;;;;;;5083356;28;20165;-70
2023/01/01 01:13:43;;;;;;;;;;;11.80;99.90;;;;;;5083495;28;19943;-70
2023/01/01 01:16:10;;;;;;;;;;;11.70;99.90;;;;;;5083034;28;19920;-70
2023/01/01 01:18:38;;;;;;;;;;;11.60;99.90;;;;;;5085425;28;20007;-69
2023/01/01 01:21:05;;;;;;;;;;;11.60;99.90;;;;;;5087561;28;19920;-69
2023/01/01 01:23:32;;;;;;;;;;;11.60;99.90;;;;;;5087404;28;20033;-70
2023/01/01 01:26:06;;;;;;;;;;;11.70;99.90;;;;;;5087407;28;20015;-70
2023/01/01 01:28:32;;;;;;;;;;;11.80;99.90;;;;;;5087264;28;19991;-70
2023/01/01 01:30:59;;;;;;;;;;;11.80;99.90;;;;;;5087349;28;19920;-70
2023/01/01 01:33:26;;;;;;;;;;;12.00;99.90;;;;;;5087257;28;20173;-70
2023/01/01 01:35:54;;;;;;;;;;;12.00;99.90;;;;;;5086593;28;19955;-69
2023/01/01 01:38:21;;;;;;;;;;;12.00;99.90;;;;;;5086930;28;19930;-70
2023/01/01 01:40:47;;;;;;;;;;;12.00;99.90;;;;;;5087088;28;20034;-70
2023/01/01 01:43:20;;;;;;;;;;;12.10;99.90;;;;;;5087112;28;20175;-69
2023/01/01 01:45:46;;;;;;;;;;;12.10;99.90;;;;;;5086887;28;19995;-71
2023/01/01 01:48:13;;;;;;;;;;;12.10;99.90;;;;;;5086366;28;19948;-70
2023/01/01 01:50:41;;;;;;;;;;;12.10;99.90;;;;;;5086778;28;19920;-70
2023/01/01 01:53:12;;;;;;;;;;;12.10;99.90;;;;;;5086772;28;19920;-70
2023/01/01 01:55:40;;;;;;;;;;;12.10;99.90;;;;;;5086697;28;19920;-70
2023/01/01 01:58:09;;;;;;;;;;;12.00;99.90;;;;;;5086299;28;20267;-70
2023/01/01 02:00:36;;;;;;;;;;;12.10;99.90;;;;;;5086186;28;19995;-70
2023/01/01 02:03:05;;;;;;;;;;;12.10;99.90;;;;;;5086387;28;19987;-71
2023/01/01 02:05:33;;;;;;;;;;;12.00;99.90;;;;;;5085648;28;20145;-70
2023/01/01 02:08:00;;;;;;;;;;;12.00;99.90;;;;;;5086020;28;20212;-70
2023/01/01 02:10:28;;;;;;;;;;;11.90;99.90;;;;;;5086623;28;19983;-70
2023/01/01 02:12:55;;;;;;;;;;;11.90;99.90;;;;;;5086363;28;20116;-70
2023/01/01 02:15:23;;;;;;;;;;;11.80;99.90;;;;;;5086502;28;19920;-70
2023/01/01 02:17:55;;;;;;;;;;;11.70;99.90;;;;;;5083806;23;19927;-71
2023/01/01 02:20:26;;;;;;;;;;;11.70;99.90;;;;;;5057678;28;20027;-71
2023/01/01 02:23:09;;;;;;;;;;;11.50;99.90;;;;;;5056698;28;19992;-71
2023/01/01 02:25:41;;;;;;;;;;;11.50;99.90;;;;;;5064633;28;20089;-71
2023/01/01 02:28:13;;;;;;;;;;;11.30;99.90;;;;;;5065439;28;20087;-71
2023/01/01 02:30:42;;;;;;;;;;;11.20;99.90;;;;;;5065758;28;20306;-71
2023/01/01 02:33:11;;;;;;;;;;;11.10;99.90;;;;;;5065040;28;19920;-71
2023/01/01 02:35:41;;;;;;;;;;;10.90;99.90;;;;;;5065876;28;20079;-71
2023/01/01 02:38:09;;;;;;;;;;;10.90;99.90;;;;;;5065688;28;19921;-71
2023/01/01 02:40:39;;;;;;;;;;;10.80;99.90;;;;;;5051094;28;19992;-71
2023/01/01 02:43:06;;;;;;;;;;;10.80;99.90;;;;;;5045814;28;20008;-71
2023/01/01 02:45:33;;;;;;;;;;;10.80;99.90;;;;;;5045535;28;19960;-71
2023/01/01 02:48:07;;;;;;;;;;;10.80;99.90;;;;;;5044447;28;20544;-71
2023/01/01 02:50:34;;;;;;;;;;;10.70;99.90;;;;;;5045526;28;19944;-71
2023/01/01 02:53:05;;;;;;;;;;;10.70;99.90;;;;;;5045488;28;19921;-71
2023/01/01 02:55:36;;;;;;;;;;;10.60;99.90;;;;;;5045507;28;19980;-71
2023/01/01 03:00:48;;;;;;;;;;;10.40;99.90;;;;;;5056656;28;19980;-71
2023/01/01 03:03:20;;;;;;;;;;;10.40;99.90;;;;;;5065078;28;19987;-71
2023/01/01 03:08:41;;;;;;;;;;;10.60;99.90;;;;;;5064992;28;19980;-71
2023/01/01 03:11:09;;;;;;;;;;;10.70;99.90;;;;;;5064991;28;20208;-70
2023/01/01 03:13:39;;;;;;;;;;;10.80;99.90;;;;;;5061026;28;19980;-71
2023/01/01 03:16:10;;;;;;;;;;;10.80;99.90;;;;;;5044938;28;20159;-71
2023/01/01 03:18:44;;;;;;;;;;;10.70;99.90;;;;;;5044285;28;19982;-71
2023/01/01 03:21:12;;;;;;;;;;;10.60;99.90;;;;;;5044801;28;20275;-71
2023/01/01 03:23:42;;;;;;;;;;;10.60;99.90;;;;;;5044656;28;20259;-71
2023/01/01 03:26:10;;;;;;;;;;;10.70;99.90;;;;;;5044511;28;19975;-71
2023/01/01 03:28:39;;;;;;;;;;;10.70;99.90;;;;;;5044600;28;19964;-71
2023/01/01 03:31:06;;;;;;;;;;;10.80;99.90;;;;;;5044966;28;19921;-71
2023/01/01 03:33:34;;;;;;;;;;;10.90;99.90;;;;;;5044968;28;19956;-71
2023/01/01 03:36:04;;;;;;;;;;;11.20;99.90;;;;;;5044369;28;20149;-70
2023/01/01 03:38:31;;;;;;;;;;;11.30;99.90;;;;;;5044565;28;20266;-70
2023/01/01 03:41:01;;;;;;;;;;;11.50;99.90;;;;;;5043663;28;20224;-71
2023/01/01 03:43:31;;;;;;;;;;;11.70;99.90;;;;;;5044605;28;19953;-70
2023/01/01 03:45:59;;;;;;;;;;;11.90;99.90;;;;;;5044230;28;19921;-71
2023/01/01 03:48:26;;;;;;;;;;;12.00;99.90;;;;;;5044612;28;19959;-71
2023/01/01 03:50:56;;;;;;;;;;;12.20;99.90;;;;;;5044605;28;19988;-71
2023/01/01 03:53:32;;;;;;;;;;;12.20;99.90;;;;;;5044234;28;19928;-70
2023/01/01 03:56:02;;;;;;;;;;;12.30;99.90;;;;;;5032806;28;19980;-71
2023/01/01 03:58:32;;;;;;;;;;;12.40;99.90;;;;;;5022817;28;19984;-71
2023/01/01 04:01:01;;;;;;;;;;;12.50;99.90;;;;;;5023348;28;20004;-71
2023/01/01 04:03:29;;;;;;;;;;;12.50;99.90;;;;;;5024435;28;19929;-71
2023/01/01 04:05:55;;;;;;;;;;;12.50;99.90;;;;;;5023917;28;19989;-71
2023/01/01 04:08:22;;;;;;;;;;;12.50;99.90;;;;;;5024380;28;19928;-71
2023/01/01 04:10:51;;;;;;;;;;;12.60;99.90;;;;;;5024419;28;19956;-71
2023/01/01 04:13:18;;;;;;;;;;;12.60;99.90;;;;;;5024246;28;20279;-71
2023/01/01 04:15:45;;;;;;;;;;;12.60;99.90;;;;;;5024240;28;19988;-70
2023/01/01 04:18:11;;;;;;;;;;;12.70;99.90;;;;;;5023830;28;19976;-71
2023/01/01 04:20:38;;;;;;;;;;;12.70;99.90;;;;;;5023956;28;19997;-71
2023/01/01 04:23:04;;;;;;;;;;;12.60;99.90;;;;;;5030712;28;19948;-71
2023/01/01 04:25:31;;;;;;;;;;;12.60;99.90;;;;;;5043874;28;19988;-71
2023/01/01 04:28:02;;;;;;;;;;;12.60;99.90;;;;;;5043317;28;19927;-71
2023/01/01 04:30:29;;;;;;;;;;;12.60;99.90;;;;;;5043972;28;19942;-71
2023/01/01 04:32:55;;;;;;;;;;;12.60;99.90;;;;;;5043568;28;19993;-71
2023/01/01 04:35:22;;;;;;;;;;;12.60;99.90;;;;;;5043497;28;19943;-70
2023/01/01 04:37:48;;;;;;;;;;;12.60;99.90;;;;;;5043478;28;19983;-71
2023/01/01 04:40:15;;;;;;;;;;;12.60;99.90;;;;;;5043734;28;19984;-71
2023/01/01 04:42:42;;;;;;;;;;;12.50;99.90;;;;;;5043715;28;19927;-71
2023/01/01 04:45:13;;;;;;;;;;;12.50;99.90;;;;;;5043550;28;20162;-71
2023/01/01 04:47:40;;;;;;;;;;;12.40;99.90;;;;;;5043285;28;19921;-71
2023/01/01 04:50:07;;;;;;;;;;;12.40;99.90;;;;;;5043296;28;19988;-71
2023/01/01 04:52:34;;;;;;;;;;;12.40;99.90;;;;;;5043564;28;19988;-71
2023/01/01 04:55:00;;;;;;;;;;;12.40;99.90;;;;;;5043542;28;19952;-69
2023/01/01 04:57:28;;;;;;;;;;;12.40;99.90;;;;;;5042099;28;19953;-71
2023/01/01 04:59:55;;;;;;;;;;;12.30;99.90;;;;;;5043628;28;20180;-70
2023/01/01 05:02:23;;;;;;;;;;;12.30;99.90;;;;;;5043816;28;19959;-70
2023/01/01 05:04:50;;;;;;;;;;;12.40;99.90;;;;;;5043733;28;19988;-69
2023/01/01 05:07:16;;;;;;;;;;;12.40;99.90;;;;;;5043636;28;19959;-70
2023/01/01 05:09:49;;;;;;;;;;;12.40;99.90;;;;;;5042830;28;19949;-70
2023/01/01 05:12:16;;;;;;;;;;;12.40;99.90;;;;;;5043835;28;19921;-70
2023/01/01 05:14:42;;;;;;;;;;;12.40;99.90;;;;;;5043494;28;20287;-70
2023/01/01 05:17:09;;;;;;;;;;;12.50;99.90;;;;;;5043145;28;19971;-69
2023/01/01 05:19:37;;;;;;;;;;;12.50;99.90;;;;;;5043740;28;19952;-70
2023/01/01 05:22:03;;;;;;;;;;;12.50;99.90;;;;;;5043564;28;19988;-71
2023/01/01 05:24:35;;;;;;;;;;;12.50;99.90;;;;;;5043753;28;19952;-69
2023/01/01 05:27:01;;;;;;;;;;;12.50;99.90;;;;;;5043403;28;19936;-71
2023/01/01 05:29:28;;;;;;;;;;;12.40;99.90;;;;;;5043462;28;20175;-70
2023/01/01 05:31:55;;;;;;;;;;;12.40;99.90;;;;;;5043553;28;19960;-70
2023/01/01 05:34:21;;;;;;;;;;;12.40;99.90;;;;;;5043689;28;19953;-70
2023/01/01 05:36:49;;;;;;;;;;;12.40;99.90;;;;;;5043078;28;20220;-70
2023/01/01 05:39:16;;;;;;;;;;;12.40;99.90;;;;;;5043190;28;20243;-70
2023/01/01 05:41:42;;;;;;;;;;;12.40;99.90;;;;;;5043381;28;19992;-70
2023/01/01 05:44:10;;;;;;;;;;;12.40;99.90;;;;;;5043500;28;19955;-70
2023/01/01 05:46:37;;;;;;;;;;;12.30;99.90;;;;;;5043063;28;19928;-70
2023/01/01 05:49:04;;;;;;;;;;;12.30;99.90;;;;;;5043431;28;19996;-70
2023/01/01 05:51:31;;;;;;;;;;;12.20;99.90;;;;;;5043449;28;19921;-71
2023/01/01 05:53:59;;;;;;;;;;;12.20;99.90;;;;;;5043070;28;19944;-70
2023/01/01 05:56:26;;;;;;;;;;;12.20;99.90;;;;;;5043101;28;19927;-70
2023/01/01 05:58:52;;;;;;;;;;;12.10;99.90;;;;;;5043286;28;19952;-71
2023/01/01 06:01:20;;;;;;;;;;;12.10;99.90;;;;;;5043342;28;19996;-70
2023/01/01 06:03:47;;;;;;;;;;;12.10;99.90;;;;;;5044716;28;19987;-70
2023/01/01 06:06:16;;;;;;;;;;;12.00;99.90;;;;;;5046741;28;19921;-70
2023/01/01 06:08:43;;;;;;;;;;;12.00;99.90;;;;;;5046911;28;19988;-70
2023/01/01 06:11:12;;;;;;;;;;;11.90;99.90;;;;;;5046627;28;20224;-70
2023/01/01 06:13:38;;;;;;;;;;;11.90;99.90;;;;;;5046598;28;19988;-70
2023/01/01 06:16:05;;;;;;;;;;;11.80;99.90;;;;;;5046575;28;19987;-70
2023/01/01 06:18:34;;;;;;;;;;;11.90;99.90;;;;;;5046306;28;19984;-70
2023/01/01 06:21:04;;;;;;;;;;;11.80;99.90;;;;;;5046741;28;19988;-70
2023/01/01 06:23:30;;;;;;;;;;;11.80;99.90;;;;;;5046750;28;20263;-70
2023/01/01 06:25:57;;;;;;;;;;;11.80;99.90;;;;;;5046436;28;19960;-70
2023/01/01 06:28:25;;;;;;;;;;;11.80;99.90;;;;;;5046371;28;19964;-70
2023/01/01 06:30:51;;;;;;;;;;;11.80;99.90;;;;;;5046184;28;19984;-71
2023/01/01 06:33:18;;;;;;;;;;;11.80;99.90;;;;;;5046111;28;20284;-70
2023/01/01 06:35:46;;;;;;;;;;;11.80;99.90;;;;;;5045516;28;19948;-72
2023/01/01 06:38:12;;;;;;;;;;;11.80;99.90;;;;;;5045849;28;19988;-70
2023/01/01 06:40:39;;;;;;;;;;;11.80;99.90;;;;;;5046300;28;19948;-70
2023/01/01 06:43:05;;;;;;;;;;;11.80;99.90;;;;;;5046246;28;20235;-71
2023/01/01 06:45:35;;;;;;;;;;;11.80;99.90;;;;;;5045733;28;19959;-70
2023/01/01 06:48:02;;;;;;;;;;;11.80;99.90;;;;;;5046006;28;19927;-70
2023/01/01 06:50:29;;;;;;;;;;;11.80;99.90;;;;;;5045845;28;19987;-70
2023/01/01 06:52:55;;;;;;;;;;;11.70;99.90;;;;;;5046090;28;19952;-69
2023/01/01 06:55:23;;;;;;;;;;;11.70;99.90;;;;;;5044880;28;20183;-71
2023/01/01 06:57:51;;;;;;;;;;;11.70;99.90;;;;;;5045320;28;19928;-70
2023/01/01 07:00:18;;;;;;;;;;;11.70;99.90;;;;;;5045589;28;20235;-70
2023/01/01 07:02:48;;;;;;;;;;;11.70;99.90;;;;;;5045638;28;19984;-70
2023/01/01 07:05:15;;;;;;;;;;;11.60;99.90;;;;;;5045919;28;19921;-70
2023/01/01 07:07:42;;;;;;;;;;;11.60;99.90;;;;;;5045540;28;19971;-70
2023/01/01 07:10:08;;;;;;;;;;;11.40;99.90;;;;;;5045682;28;19992;-70
2023/01/01 07:12:35;;;;;;;;;;;11.30;99.90;;;;;;5045761;28;19921;-70
2023/01/01 07:15:01;;;;;;;;;;;11.20;99.90;;;;;;5044310;28;20208;-70
2023/01/01 07:17:28;;;;;;;;;;;11.10;99.90;;;;;;5045044;28;19953;-70
2023/01/01 07:19:56;;;;;;;;;;;11.00;99.90;;;;;;5045700;28;19960;-70
2023/01/01 07:22:23;;;;;;;;;;;11.00;99.90;;;;;;5045523;28;19920;-71
2023/01/01 07:24:55;;;;;;;;;;;10.90;99.90;;;;;;5044395;28;19987;-70
2023/01/01 07:27:22;;;;;;;;;;;10.90;99.90;;;;;;5045183;28;19921;-70
2023/01/01 07:29:48;;;;;;;;;;;10.80;99.90;;;;;;5045335;28;19956;-70
2023/01/01 07:32:19;;;;;;;;;;;10.80;99.90;;;;;;5044284;28;19928;-70
2023/01/01 07:34:46;;;;;;;;;;;10.80;99.90;;;;;;5045342;28;19988;-70
2023/01/01 07:37:14;;;;;;;;;;;10.80;99.90;;;;;;5045109;28;19928;-69
2023/01/01 07:39:40;;;;;;;;;;;10.80;99.90;;;;;;5045269;28;19992;-70
2023/01/01 07:42:07;;;;;;;;;;;10.80;99.90;;;;;;5045130;28;19995;-70
2023/01/01 07:44:34;;;;;;;;;;;10.80;99.90;;;;;;5045171;28;19959;-70
2023/01/01 07:47:03;;;;;;;;;;;10.80;99.90;;;;;;5044669;28;19952;-70
2023/01/01 07:49:30;;;;;;;;;;;10.80;99.90;;;;;;5045022;28;19991;-70
2023/01/01 07:51:57;;;;;;;;;;;10.90;99.90;;;;;;5045056;28;20167;-70
2023/01/01 07:54:25;;;;;;;;;;;10.90;99.90;;;;;;5044672;28;19983;-70
2023/01/01 07:56:51;;;;;;;;;;;10.80;99.90;;;;;;5044207;28;19983;-70
2023/01/01 07:59:18;;;;;;;;;;;10.80;99.90;;;;;;5044884;28;19928;-70
2023/01/01 08:01:44;;;;;;;;;;;10.90;99.90;;;;;;5044384;28;20007;-70
2023/01/01 08:04:11;;;;;;;;;;;10.90;99.90;;;;;;5041725;28;19952;-70
2023/01/01 08:06:38;;;;;;;;;;;11.00;99.90;;;;;;5044219;28;19983;-70
2023/01/01 08:09:04;;;;;;;;;;;11.00;99.90;;;;;;5044354;28;19992;-70
2023/01/01 08:11:32;;;;;;;;;;;11.10;99.90;;;;;;5038536;28;19988;-70
2023/01/01 08:14:36;;;;;;;;;;;11.10;99.90;;;;;;5024024;28;19952;-70
2023/01/01 08:17:03;;;;;;;;;;;11.10;99.90;;;;;;5037065;28;19949;-70
2023/01/01 08:19:29;;;;;;;;;;;11.20;99.90;;;;;;5044467;28;20204;-70
2023/01/01 08:21:56;;;;;;;;;;;11.20;99.90;;;;;;5044426;28;20001;-70
2023/01/01 08:24:22;;;;;;;;;;;11.20;99.90;;;;;;5044459;28;19975;-71
2023/01/01 08:26:50;;;;;;;;;;;11.30;99.90;;;;;;5043807;28;19976;-70
2023/01/01 08:29:17;;;;;;;;;;;11.30;99.90;;;;;;5044164;28;19921;-70
2023/01/01 08:31:44;;;;;;;;;;;11.30;99.90;;;;;;5043997;28;20248;-70
2023/01/01 08:34:10;;;;;;;;;;;11.30;99.90;;;;;;5044157;28;19964;-70
2023/01/01 08:36:39;;;;;;;;;;;11.40;99.90;;;;;;5043634;28;19980;-70
2023/01/01 08:39:06;;;;;;;;;;;11.40;99.90;;;;;;5060114;28;19979;-70
2023/01/01 08:41:33;;;;;;;;;;;11.50;99.90;;;;;;5064174;28;19996;-70
2023/01/01 08:44:01;;;;;;;;;;;11.60;99.90;;;;;;5064110;28;19983;-70
2023/01/01 08:46:27;;;;;;;;;;;11.60;99.90;;;;;;5063810;28;19920;-71
2023/01/01 08:48:54;;;;;;;;;;;11.60;99.90;;;;;;5063728;28;20255;-70
2023/01/01 08:51:20;;;;;;;;;;;11.70;99.90;;;;;;5064033;28;19984;-70
2023/01/01 08:53:47;;;;;;;;;;;11.80;99.90;;;;;;5064058;28;19988;-70
2023/01/01 08:56:15;;;;;;;;;;;11.80;99.90;;;;;;5063648;28;19927;-70
2023/01/01 08:58:42;;;;;;;;;;;11.90;99.90;;;;;;5063518;28;19925;-71
2023/01/01 09:01:10;;;;;;;;;;;11.90;99.90;;;;;;5063332;28;20022;-70
2023/01/01 09:03:37;;;;;;;;;;;11.90;99.90;;;;;;5043975;28;19921;-70
2023/01/01 09:06:03;;;;;;;;;;;11.90;99.90;;;;;;5043956;28;19957;-70
2023/01/01 09:08:30;;;;;;;;;;;11.90;99.90;;;;;;5043811;28;19927;-70
2023/01/01 09:10:58;;;;;;;;;;;12.00;99.90;;;;;;5043161;28;20263;-70
2023/01/01 09:13:25;;;;;;;;;;;12.00;99.90;;;;;;5043848;28;19921;-70
2023/01/01 09:18:42;;;;;;;;;;;12.00;99.90;;;;;;5043512;28;19920;-70
2023/01/01 09:21:09;;;;;;;;;;;12.00;99.90;;;;;;5043694;28;19927;-70
2023/01/01 09:23:35;;;;;;;;;;;12.00;99.90;;;;;;5043721;28;19952;-70
2023/01/01 09:26:02;;;;;;;;;;;12.10;99.90;;;;;;5043221;28;20262;-70
2023/01/01 09:28:29;;;;;;;;;;;12.10;99.90;;;;;;5043536;28;19920;-70
2023/01/01 09:30:56;;;;;;;;;;;12.10;99.90;;;;;;5043242;28;19943;-70
2023/01/01 09:33:22;;;;;;;;;;;12.10;99.90;;;;;;5043227;28;19961;-71
2023/01/01 09:35:50;;;;;;;;;;;12.20;99.90;;;;;;5043338;28;19956;-70
2023/01/01 09:38:17;;;;;;;;;;;12.30;99.90;;;;;;5043980;28;19984;-70
2023/01/01 09:40:48;;;;;;;;;;;12.40;99.90;;;;;;5047443;28;19921;-70
2023/01/01 09:43:20;;;;;;;;;;;12.40;99.90;;;;;;5047617;28;19963;-71
2023/01/01 09:45:51;;;;;;;;;;;12.60;99.90;;;;;;5047414;28;19921;-70
2023/01/01 09:48:18;;;;;;;;;;;12.60;99.90;;;;;;5047256;28;19921;-70
2023/01/01 09:50:46;;;;;;;;;;;12.70;99.90;;;;;;5047473;28;20251;-70
2023/01/01 09:53:30;;;;;;;;;;;12.80;99.90;;;;;;5046322;28;19984;-70
2023/01/01 09:55:57;;;;;;;;;;;12.90;99.90;;;;;;5046926;28;19963;-70
2023/01/01 09:58:26;;;;;;;;;;;13.00;99.90;;;;;;5047035;28;19984;-70
2023/01/01 10:00:54;;;;;;;;;;;13.10;99.90;;;;;;5047141;28;19928;-70
2023/01/01 10:03:30;;;;;;;;;;;13.20;99.90;;;;;;5046821;28;19921;-70
2023/01/01 10:06:00;;;;;;;;;;;13.20;99.90;;;;;;5046908;28;19928;-70
2023/01/01 10:08:34;;;;;;;;;;;13.20;99.90;;;;;;5046951;28;19988;-70
2023/01/01 10:11:13;;;;;;;;;;;13.30;99.90;;;;;;5046319;28;19928;-70
2023/01/01 10:13:41;;;;;;;;;;;13.30;99.90;;;;;;5046770;28;19993;-70
2023/01/01 10:16:11;;;;;;;;;;;13.40;99.90;;;;;;5045684;28;19927;-70
2023/01/01 10:18:38;;;;;;;;;;;13.40;99.90;;;;;;5046373;28;19921;-71
2023/01/01 10:21:07;;;;;;;;;;;13.40;99.90;;;;;;5046260;28;20115;-70
2023/01/01 10:23:40;;;;;;;;;;;13.40;99.90;;;;;;5046359;28;19988;-71
2023/01/01 10:26:09;;;;;;;;;;;13.30;99.90;;;;;;5046424;28;19921;-70
2023/01/01 10:28:40;;;;;;;;;;;13.40;99.90;;;;;;5046609;28;19996;-69
2023/01/01 10:31:13;;;;;;;;;;;13.40;99.90;;;;;;5046531;28;19928;-70
2023/01/01 10:33:40;;;;;;;;;;;13.40;99.90;;;;;;5046272;28;20239;-71
2023/01/01 10:36:08;;;;;;;;;;;13.40;99.90;;;;;;5046222;28;19952;-71
2023/01/01 10:38:47;;;;;;;;;;;13.40;99.90;;;;;;5045606;28;19928;-70
2023/01/01 10:41:14;;;;;;;;;;;13.30;99.90;;;;;;5046305;28;19927;-70
2023/01/01 10:43:41;;;;;;;;;;;13.30;99.90;;;;;;5046435;28;19971;-70
2023/01/01 10:46:10;;;;;;;;;;;13.30;99.90;;;;;;5065709;28;20182;-69
2023/01/01 10:49:03;;;;;;;;;;;13.30;99.90;;;;;;5065297;28;20115;-69
2023/01/01 10:51:30;;;;;;;;;;;13.30;99.90;;;;;;5065811;28;20116;-69
2023/01/01 10:53:58;;;;;;;;;;;13.30;99.90;;;;;;5065449;28;19963;-69
2023/01/01 10:56:27;;;;;;;;;;;13.30;99.90;;;;;;5064929;28;19956;-69
2023/01/01 10:58:55;;;;;;;;;;;13.30;99.90;;;;;;5065462;28;19921;-69
2023/01/01 11:01:22;;;;;;;;;;;13.30;99.90;;;;;;5065807;28;19988;-69
2023/01/01 11:03:53;;;;;;;;;;;13.40;99.90;;;;;;5065873;28;19924;-68
2023/01/01 11:06:21;;;;;;;;;;;13.40;99.90;;;;;;5065579;28;19920;-69
2023/01/01 11:08:48;;;;;;;;;;;13.40;99.90;;;;;;5065603;28;20127;-69
2023/01/01 11:11:21;;;;;;;;;;;13.50;99.90;;;;;;5065560;28;19992;-68
2023/01/01 11:13:48;;;;;;;;;;;13.60;99.90;;;;;;5065461;28;19988;-70
2023/01/01 11:16:15;;;;;;;;;;;13.70;99.90;;;;;;5065454;28;20305;-68
2023/01/01 11:18:42;;;;;;;;;;;13.80;99.90;;;;;;5065494;28;19954;-68
2023/01/01 11:21:08;;;;;;;;;;;13.90;99.90;;;;;;5065584;28;20000;-69
2023/01/01 11:23:36;;;;;;;;;;;14.00;99.90;;;;;;5065504;28;19991;-68
2023/01/01 11:26:04;;;;;;;;;;;14.10;99.90;;;;;;5065297;28;19925;-69
2023/01/01 11:28:33;;;;;;;;;;;14.10;99.90;;;;;;5065448;28;19959;-69
2023/01/01 11:31:03;;;;;;;;;;;14.20;99.90;;;;;;5065080;28;20120;-69
2023/01/01 11:33:31;;;;;;;;;;;14.30;99.90;;;;;;5065362;28;19956;-68
2023/01/01 11:35:58;;;;;;;;;;;14.30;99.90;;;;;;5065166;28;19979;-70
2023/01/01 11:38:25;;;;;;;;;;;14.40;99.90;;;;;;5064839;28;19931;-68
2023/01/01 11:40:52;;;;;;;;;;;14.50;99.90;;;;;;5065005;28;20263;-68
2023/01/01 11:43:21;;;;;;;;;;;14.60;99.90;;;;;;5065151;28;19952;-69
2023/01/01 11:45:50;;;;;;;;;;;14.60;99.90;;;;;;5064784;28;19988;-69
2023/01/01 11:48:18;;;;;;;;;;;14.70;99.90;;;;;;5064966;28;19931;-68
2023/01/01 11:50:49;;;;;;;;;;;14.70;99.90;;;;;;5065060;28;19956;-70
2023/01/01 11:53:26;;;;;;;;;;;14.80;99.90;;;;;;5065039;28;19921;-68
2023/01/01 11:55:53;;;;;;;;;;;14.90;99.90;;;;;;5064812;28;19979;-69
2023/01/01 11:58:23;;;;;;;;;;;14.90;99.90;;;;;;5064465;28;19963;-69
2023/01/01 12:00:52;;;;;;;;;;;15.00;99.90;;;;;;5064557;28;19992;-69
2023/01/01 12:03:23;;;;;;;;;;;15.10;99.90;;;;;;5064454;28;19995;-69
2023/01/01 12:05:51;;;;;;;;;;;15.20;99.90;;;;;;5064670;28;20181;-68
2023/01/01 12:08:22;;;;;;;;;;;15.30;99.90;;;;;;5064575;28;19921;-69
2023/01/01 12:10:51;;;;;;;;;;;15.40;99.90;;;;;;5064853;28;20220;-69
2023/01/01 12:13:20;;;;;;;;;;;15.50;99.90;;;;;;5064711;28;19927;-69
2023/01/01 12:15:49;;;;;;;;;;;15.70;99.90;;;;;;5064534;28;20127;-69
2023/01/01 12:18:21;;;;;;;;;;;15.80;99.90;;;;;;5064367;28;19948;-68
2023/01/01 12:20:49;;;;;;;;;;;15.90;99.90;;;;;;5064613;28;19952;-69
2023/01/01 12:23:16;;;;;;;;;;;16.00;99.90;;;;;;5064265;28;19921;-69
2023/01/01 12:25:44;;;;;;;;;;;16.10;99.90;;;;;;5064297;28;20007;-69
2023/01/01 12:28:17;;;;;;;;;;;16.10;99.90;;;;;;5063845;28;20275;-69
2023/01/01 12:30:49;;;;;;;;;;;16.20;99.90;;;;;;5064327;28;19992;-69
2023/01/01 12:33:27;;;;;;;;;;;16.30;99.90;;;;;;5063961;28;20332;-69
2023/01/01 12:36:00;;;;;;;;;;;16.30;99.90;;;;;;5063852;28;19984;-69
2023/01/01 12:38:37;;;;;;;;;;;16.50;99.90;;;;;;5064034;28;19952;-68
2023/01/01 12:41:07;;;;;;;;;;;16.60;99.90;;;;;;5063524;28;20290;-68
2023/01/01 12:43:39;;;;;;;;;;;16.60;99.90;;;;;;5062919;28;19921;-67
2023/01/01 12:46:12;;;;;;;;;;;16.70;99.90;;;;;;5063456;28;19996;-68
2023/01/01 12:48:57;;;;;;;;;;;16.80;99.90;;;;;;5063171;28;20280;-68
2023/01/01 12:51:31;;;;;;;;;;;16.90;99.90;;;;;;5063402;28;19948;-67
2023/01/01 12:54:04;;;;;;;;;;;16.90;99.90;;;;;;5056025;28;19921;-68
2023/01/01 12:56:32;;;;;;;;;;;16.90;99.90;;;;;;5042555;28;19984;-69
2023/01/01 12:59:01;;;;;;;;;;;16.80;99.90;;;;;;5042911;28;19984;-69
2023/01/01 13:01:29;;;;;;;;;;;16.70;99.90;;;;;;5043158;28;19921;-68
2023/01/01 13:03:58;;;;;;;;;;;16.80;99.90;;;;;;5043381;28;19928;-68
2023/01/01 13:06:28;;;;;;;;;;;16.60;99.90;;;;;;5043418;28;19963;-69
2023/01/01 13:08:59;;;;;;;;;;;16.50;99.90;;;;;;5043635;28;20171;-70
2023/01/01 13:11:26;;;;;;;;;;;16.40;99.90;;;;;;5043845;28;20115;-69
2023/01/01 13:13:53;;;;;;;;;;;16.40;99.90;;;;;;5045238;28;20101;-71
2023/01/01 13:16:32;;;;;;;;;;;16.30;99.90;;;;;;5047199;28;19960;-70
2023/01/01 13:19:00;;;;;;;;;;;16.30;99.90;;;;;;5047324;28;19921;-70
2023/01/01 13:21:28;;;;;;;;;;;16.20;99.90;;;;;;5047407;28;20268;-71
2023/01/01 13:23:59;;;;;;;;;;;16.10;99.90;;;;;;5047571;28;19928;-70
2023/01/01 13:26:44;;;;;;;;;;;16.10;99.90;;;;;;5047049;28;19921;-70
2023/01/01 13:29:41;;;;;;;;;;;16.10;99.90;;;;;;5047357;28;20208;-70
2023/01/01 13:32:09;;;;;;;;;;;16.10;99.90;;;;;;5047605;28;19943;-70
2023/01/01 13:34:41;;;;;;;;;;;16.00;99.90;;;;;;5044804;28;20155;-73
2023/01/01 13:37:27;;;;;;;;;;;16.00;99.90;;;;;;5046655;28;19984;-70
2023/01/01 13:39:54;;;;;;;;;;;15.90;99.90;;;;;;5047006;28;19921;-70
2023/01/01 13:42:51;;;;;;;;;;;15.90;99.90;;;;;;5047312;28;19922;-70
2023/01/01 13:45:21;;;;;;;;;;;15.80;99.90;;;;;;5012817;28;19921;-71
2023/01/01 13:48:00;;;;;;;;;;;15.80;99.90;;;;;;5046144;28;19929;-70
2023/01/01 13:50:33;;;;;;;;;;;15.80;99.90;;;;;;5046789;28;19963;-70
2023/01/01 13:53:08;;;;;;;;;;;15.80;99.90;;;;;;5046648;28;19984;-70
2023/01/01 13:55:39;;;;;;;;;;;15.70;99.90;;;;;;5046065;28;20144;-71
2023/01/01 13:58:24;;;;;;;;;;;15.80;99.90;;;;;;5045374;28;19921;-70
2023/01/01 14:01:18;;;;;;;;;;;15.80;99.90;;;;;;5041799;28;20208;-70
2023/01/01 14:03:52;;;;;;;;;;;15.80;99.90;;;;;;5024176;28;19921;-70
2023/01/01 14:06:27;;;;;;;;;;;15.70;99.90;;;;;;5044444;28;19993;-70
2023/01/01 14:09:00;;;;;;;;;;;15.70;99.90;;;;;;5046685;28;19922;-69
2023/01/01 14:11:28;;;;;;;;;;;15.70;99.90;;;;;;5046961;28;20116;-70
2023/01/01 14:14:12;;;;;;;;;;;15.60;99.90;;;;;;5043914;28;19921;-70
2023/01/01 14:16:39;;;;;;;;;;;15.60;99.90;;;;;;5041877;28;19953;-70
2023/01/01 14:19:06;;;;;;;;;;;15.60;99.90;;;;;;5046060;28;19980;-70
2023/01/01 14:21:34;;;;;;;;;;;15.60;99.90;;;;;;5046236;28;20239;-71
2023/01/01 14:24:04;;;;;;;;;;;15.60;99.90;;;;;;5043686;28;19927;-70
2023/01/01 14:26:32;;;;;;;;;;;15.50;99.90;;;;;;5045652;28;19921;-70
2023/01/01 14:28:59;;;;;;;;;;;15.60;99.90;;;;;;5026695;28;19957;-72
2023/01/01 14:31:28;;;;;;;;;;;15.50;99.90;;;;;;5040829;28;19992;-69
2023/01/01 14:33:55;;;;;;;;;;;15.50;99.90;;;;;;5045971;28;19980;-69
2023/01/01 14:36:22;;;;;;;;;;;15.40;99.90;;;;;;5045604;28;19984;-70
2023/01/01 14:38:51;;;;;;;;;;;15.40;99.90;;;;;;5045667;28;19927;-69